Time,TemperatureF,DewpointF,PressureIn,WindDirection,WindDirectionDegrees,WindSpeedMPH,WindSpeedGustMPH,Humidity,HourlyPrecipIn,Conditions,Clouds,dailyrainin,SoftwareType,DateUTC
2013-06-10 00:27:00,53.1,52.0,30.14,SSE,153,0.0,-999.0,95,-99.99,,,0.00,weatherlink.com 1.10,2013-06-10 04:27:00,
2013-06-10 00:46:00,52.6,51.0,30.15,SSE,153,0.0,-999.0,95,-99.99,,,0.00,weatherlink.com 1.10,2013-06-10 04:46:00,
2013-06-10 01:24:00,53.0,52.0,30.15,SSE,153,0.0,-999.0,96,-99.99,,,0.00,weatherlink.com 1.10,2013-06-10 05:24:00,
2013-06-10 01:32:00,52.9,52.0,30.15,SSE,153,0.0,-999.0,96,-99.99,,,0.00,weatherlink.com 1.10,2013-06-10 05:32:00,
2013-06-10 01:46:00,52.8,52.0,30.15,SSE,153,0.0,-999.0,96,-99.99,,,0.00,weatherlink.com 1.10,2013-06-10 05:46:00,
2013-06-10 02:01:00,52.6,52.0,30.15,SSE,153,0.0,-999.0,96,-99.99,,,0.00,weatherlink.com 1.10,2013-06-10 06:01:00,
2013-06-10 02:16:00,51.7,50.0,30.14,SSE,153,0.0,-999.0,95,-99.99,,,0.00,weatherlink.com 1.10,2013-06-10 06:16:00,
2013-06-10 02:31:00,51.3,50.0,30.14,SSE,153,0.0,-999.0,96,-99.99,,,0.00,weatherlink.com 1.10,2013-06-10 06:31:00,
2013-06-10 02:46:00,51.0,50.0,30.14,SSE,153,0.0,-999.0,97,-99.99,,,0.00,weatherlink.com 1.10,2013-06-10 06:46:00,
2013-06-10 03:01:00,50.9,50.0,30.14,SSE,153,0.0,-999.0,97,-99.99,,,0.00,weatherlink.com 1.10,2013-06-10 07:01:00,
2013-06-10 03:16:00,50.5,50.0,30.13,SSE,153,0.0,-999.0,97,-99.99,,,0.00,weatherlink.com 1.10,2013-06-10 07:16:00,
2013-06-10 03:31:00,50.3,50.0,30.13,SSE,153,0.0,-999.0,97,-99.99,,,0.00,weatherlink.com 1.10,2013-06-10 07:31:00,
2013-06-10 03:46:00,50.2,49.0,30.14,SSE,153,0.0,-999.0,97,-99.99,,,0.00,weatherlink.com 1.10,2013-06-10 07:46:00,
2013-06-10 04:01:00,50.3,50.0,30.14,SSE,153,0.0,-999.0,97,-99.99,,,0.00,weatherlink.com 1.10,2013-06-10 08:01:00,
2013-06-10 04:17:00,50.1,49.0,30.14,SSE,153,0.0,-999.0,97,-99.99,,,0.00,weatherlink.com 1.10,2013-06-10 08:17:00,
2013-06-10 04:32:00,50.0,49.0,30.15,SSE,153,0.0,-999.0,97,-99.99,,,0.00,weatherlink.com 1.10,2013-06-10 08:32:00,
2013-06-10 04:47:00,49.7,49.0,30.15,SSE,153,0.0,-999.0,97,-99.99,,,0.00,weatherlink.com 1.10,2013-06-10 08:47:00,
2013-06-10 05:02:00,49.4,49.0,30.15,SSE,153,0.0,-999.0,97,-99.99,,,0.00,weatherlink.com 1.10,2013-06-10 09:02:00,
2013-06-10 05:17:00,49.3,49.0,30.15,SSE,153,0.0,-999.0,98,-99.99,,,0.00,weatherlink.com 1.10,2013-06-10 09:17:00,
2013-06-10 05:32:00,49.1,48.0,30.16,SSE,153,0.0,-999.0,97,-99.99,,,0.00,weatherlink.com 1.10,2013-06-10 09:32:00,
2013-06-10 05:47:00,49.0,49.0,30.16,SSE,153,0.0,-999.0,98,-99.99,,,0.00,weatherlink.com 1.10,2013-06-10 09:47:00,
2013-06-10 06:02:00,49.1,49.0,30.16,SSE,153,0.0,-999.0,98,-99.99,,,0.00,weatherlink.com 1.10,2013-06-10 10:02:00,
2013-06-10 06:17:00,49.3,49.0,30.16,SSE,153,0.0,-999.0,98,-99.99,,,0.00,weatherlink.com 1.10,2013-06-10 10:17:00,
2013-06-10 06:32:00,49.5,49.0,30.16,SSE,153,0.0,-999.0,98,-99.99,,,0.00,weatherlink.com 1.10,2013-06-10 10:32:00,
2013-06-10 06:47:00,50.2,50.0,30.17,SSE,153,0.0,-999.0,99,-99.99,,,0.00,weatherlink.com 1.10,2013-06-10 10:47:00,
2013-06-10 07:02:00,50.6,50.0,30.17,SSE,153,0.0,-999.0,99,-99.99,,,0.00,weatherlink.com 1.10,2013-06-10 11:02:00,
2013-06-10 07:17:00,50.8,50.0,30.18,SSE,153,0.0,-999.0,98,-99.99,,,0.00,weatherlink.com 1.10,2013-06-10 11:17:00,
2013-06-10 07:32:00,50.7,50.0,30.17,SSE,153,0.0,-999.0,98,-99.99,,,0.00,weatherlink.com 1.10,2013-06-10 11:32:00,
2013-06-10 08:02:00,52.0,52.0,30.17,SSE,153,0.0,-999.0,99,-99.99,,,0.00,weatherlink.com 1.10,2013-06-10 12:02:00,
2013-06-10 08:17:00,52.4,52.0,30.17,SSE,153,0.0,-999.0,98,-99.99,,,0.00,weatherlink.com 1.10,2013-06-10 12:17:00,
2013-06-10 08:33:00,53.4,53.0,30.17,SSE,153,0.0,-999.0,99,-99.99,,,0.00,weatherlink.com 1.10,2013-06-10 12:33:00,
2013-06-10 08:47:00,54.6,54.0,30.17,SSE,153,0.0,-999.0,98,-99.99,,,0.00,weatherlink.com 1.10,2013-06-10 12:47:00,
2013-06-10 09:02:00,56.2,55.0,30.16,SSE,153,0.0,-999.0,96,-99.99,,,0.00,weatherlink.com 1.10,2013-06-10 13:02:00,
2013-06-10 09:17:00,57.5,55.0,30.16,SSE,153,0.0,-999.0,92,-99.99,,,0.00,weatherlink.com 1.10,2013-06-10 13:17:00,
2013-06-10 09:32:00,59.2,56.0,30.15,SSE,153,0.0,-999.0,88,-99.99,,,0.00,weatherlink.com 1.10,2013-06-10 13:32:00,
2013-06-10 09:47:00,60.8,56.0,30.14,SSE,153,0.0,-999.0,83,-99.99,,,0.00,weatherlink.com 1.10,2013-06-10 13:47:00,
2013-06-10 10:02:00,62.1,55.0,30.14,SSE,153,0.0,-999.0,77,-99.99,,,0.00,weatherlink.com 1.10,2013-06-10 14:02:00,
2013-06-10 10:17:00,63.4,57.0,30.14,SSE,153,0.0,-999.0,79,-99.99,,,0.00,weatherlink.com 1.10,2013-06-10 14:17:00,
2013-06-10 10:32:00,64.3,58.0,30.14,SSE,153,0.0,-999.0,79,-99.99,,,0.00,weatherlink.com 1.10,2013-06-10 14:32:00,
2013-06-10 10:48:00,65.0,58.0,30.14,SSE,153,0.0,-999.0,77,-99.99,,,0.00,weatherlink.com 1.10,2013-06-10 14:48:00,
2013-06-10 11:03:00,65.8,57.0,30.14,SSE,153,0.0,-999.0,72,-99.99,,,0.00,weatherlink.com 1.10,2013-06-10 15:03:00,